Bird Island Airport

Jump to: basic info | weather | comments

Related pages: nearby airports | nearby navaids | notams | map

Basic information (top)

Codes: BDI FSSB
Location: lon -3.724720, lat 55.205299, elev 6 ft / 2 m msl
Status: small_airport

Weather (top)

Current conditions for Seychelles International Airport 60nm (111km) SSE (rec'd 2014/10/02 04:00Z):

FSIA 020400Z 12008KT 9999 SCT016 SCT070 28/23 Q1012 NOSIG

Airport forecast for Praslin Airport 46nm (85km) SE (rec'd 2012/02/23 12:00Z):

TAF FSPP 231130Z 2312/2324 35010KT 9999 SCT018 BKN250 
      TEMPO 2312/2316 -SHRA FEW014CB BKN016 
      TEMPO 2400/2418 -SHRA FEW014CB BKN016

Latest comments (top)

No comments yet for Bird Island Airport

More... (top)

See also NOTAMs and nearby airports and navaids, or visit the Bird Island Airport page at the main OurAirports website..